This is the latest recevied weather packets stored in our database for station/object G4ZMG. If no packets are shown the sender has not sent any weather packets the latest 10 day(s).
| Time | Temp. | Humidity | Pressure | Rain* | Wind** | Luminosity | Snow |
|---|---|---|---|---|---|---|---|
| 1777107649 | 15° C | 56% | 1020.5 hPa | 0 mm | - | 594 W/m² | - |
| 1777107041 | 15° C | 55% | 1020.5 hPa | 0 mm | - | 555 W/m² | - |
| 1777106434 | 15° C | 51% | 1020.3 hPa | 0 mm | - | 563 W/m² | - |
| 1777105830 | 14.44° C | 53% | 1020.4 hPa | 0 mm | - | 529 W/m² | - |
| 1777105215 | 13.89° C | 58% | 1020.5 hPa | 0 mm | - | 475 W/m² | - |
| 1777104646 | 13.33° C | 64% | 1020.4 hPa | 0 mm | - | 469 W/m² | - |
| 1777104047 | 12.78° C | 70% | 1020.4 hPa | 0 mm | - | 459 W/m² | - |
| 1777103442 | 12.22° C | 72% | 1020.5 hPa | 0 mm | - | 429 W/m² | - |
| 1777102839 | 11.67° C | 73% | 1020.5 hPa | 0 mm | - | 338 W/m² | - |
| 1777102234 | 11.11° C | 73% | 1020.5 hPa | 0 mm | - | 276 W/m² | - |
| 1777101628 | 11.11° C | 72% | 1020.5 hPa | 0 mm | - | 269 W/m² | - |
| 1777101004 | 11.11° C | 72% | 1020.5 hPa | 0 mm | - | 162 W/m² | - |
| 1777100426 | 10.56° C | 72% | 1020.5 hPa | 0 mm | - | 229 W/m² | - |
| 1777099850 | 10° C | 72% | 1020.4 hPa | 0 mm | - | 174 W/m² | - |
| 1777099241 | 9.44° C | 73% | 1020.4 hPa | 0 mm | - | 211 W/m² | - |
| 1777098636 | 8.89° C | 74% | 1020.4 hPa | 0 mm | - | 120 W/m² | - |
| 1777098027 | 8.33° C | 75% | 1020.3 hPa | 0 mm | - | 111 W/m² | - |
| 1777097413 | 7.78° C | 76% | 1020.2 hPa | 0 mm | - | 97 W/m² | - |
| 1777096818 | 7.78° C | 76% | 1020.2 hPa | 0 mm | - | 79 W/m² | - |
| 1777096210 | 7.22° C | 76% | 1020.2 hPa | 0 mm | - | 88 W/m² | - |
| 1777095647 | 7.22° C | 76% | 1020.1 hPa | 0 mm | - | 76 W/m² | - |
| 1777095039 | 6.67° C | 75% | 1020.2 hPa | 0 mm | - | 65 W/m² | - |
| 1777094423 | 6.67° C | 74% | 1020.2 hPa | 0 mm | - | 37 W/m² | - |
| 1777093811 | 6.67° C | 73% | 1020 hPa | 0 mm | - | 28 W/m² | - |
| 1777093253 | 6.67° C | 73% | 1019.9 hPa | 0 mm | - | 21 W/m² | - |
* Rain latest hour (hover to see other rain measurements)
** Current wind speed in m/s (hover to see current wind gust speed)